createdAt,value
2019-04-04T00:01:40.109Z,17.27
2019-04-04T00:03:41.777Z,18.53
2019-04-04T00:05:43.446Z,19.10
2019-04-04T00:07:45.109Z,17.43
2019-04-04T00:09:46.785Z,20.30
2019-04-04T00:11:49.267Z,22.03
2019-04-04T00:13:50.933Z,21.00
2019-04-04T00:15:52.597Z,20.93
2019-04-04T00:17:54.490Z,22.27
2019-04-04T00:19:56.148Z,20.80
2019-04-04T00:21:57.812Z,21.73
2019-04-04T00:23:59.495Z,24.83
2019-04-04T00:26:01.169Z,22.27
2019-04-04T00:28:02.860Z,23.17
2019-04-04T00:30:04.677Z,20.90
2019-04-04T00:32:06.345Z,22.20
2019-04-04T00:34:08.013Z,23.20
2019-04-04T00:36:09.690Z,23.83
2019-04-04T00:38:11.361Z,21.37
2019-04-04T00:40:13.028Z,22.67
2019-04-04T00:42:16.857Z,21.63
2019-04-04T00:44:18.581Z,22.67
2019-04-04T00:46:20.235Z,22.60
2019-04-04T00:48:22.312Z,24.07
2019-04-04T00:50:23.983Z,24.97
2019-04-04T00:52:25.653Z,24.00
2019-04-04T00:54:27.320Z,23.73
2019-04-04T00:56:28.989Z,25.70
2019-04-04T00:58:30.976Z,25.80
2019-04-04T01:00:32.653Z,24.73
2019-04-04T01:02:34.308Z,26.53
2019-04-04T01:04:36.236Z,27.53
2019-04-04T01:06:38.201Z,26.20
2019-04-04T01:08:39.877Z,26.57
2019-04-04T01:10:41.528Z,28.40
2019-04-04T01:12:43.461Z,27.73
2019-04-04T01:14:45.143Z,28.87
2019-04-04T01:16:47.080Z,27.70
2019-04-04T01:18:48.755Z,26.13
2019-04-04T01:20:51.316Z,26.23
2019-04-04T01:22:54.056Z,24.97
2019-04-04T01:24:56.800Z,25.43
2019-04-04T01:26:58.462Z,26.70
2019-04-04T01:29:00.381Z,26.07
2019-04-04T01:31:02.044Z,29.43
2019-04-04T01:33:03.925Z,27.63
2019-04-04T01:35:05.782Z,28.30
2019-04-04T01:37:07.433Z,26.70
2019-04-04T01:39:09.632Z,28.70
2019-04-04T01:41:11.301Z,26.10
2019-04-04T01:43:12.958Z,26.60
2019-04-04T01:45:14.621Z,27.00
2019-04-04T01:47:17.055Z,29.17
2019-04-04T01:49:21.184Z,29.10
2019-04-04T01:51:25.319Z,27.57
2019-04-04T01:53:29.835Z,26.37
2019-04-04T01:55:30.648Z,28.00
2019-04-04T01:57:32.566Z,28.90
2019-04-04T01:59:34.257Z,28.80
2019-04-04T02:01:36.210Z,29.03
2019-04-04T02:03:37.882Z,29.23
2019-04-04T02:05:39.553Z,28.10
2019-04-04T02:07:41.239Z,28.70
2019-04-04T02:09:43.454Z,29.30
2019-04-04T02:11:45.457Z,27.40
2019-04-04T02:13:47.119Z,28.47
2019-04-04T02:15:48.792Z,26.77
2019-04-04T02:17:51.037Z,29.27
2019-04-04T02:19:56.261Z,28.80
2019-04-04T02:21:59.865Z,29.57
2019-04-04T02:24:02.011Z,28.37
2019-04-04T02:26:05.268Z,28.17
2019-04-04T02:28:08.869Z,28.80
2019-04-04T02:30:14.936Z,26.40
2019-04-04T02:32:15.937Z,27.13
2019-04-04T02:34:17.611Z,27.67
2019-04-04T02:36:19.289Z,29.53
2019-04-04T02:38:20.967Z,29.70
2019-04-04T02:40:22.633Z,29.37
2019-04-04T02:42:24.304Z,28.30
2019-04-04T02:44:25.993Z,27.17
2019-04-04T02:46:27.662Z,28.20
2019-04-04T02:48:29.669Z,29.90
2019-04-04T02:50:34.383Z,30.10
2019-04-04T02:52:34.889Z,31.97
2019-04-04T02:54:36.566Z,30.73
2019-04-04T02:56:38.230Z,31.60
2019-04-04T02:58:40.172Z,30.73
2019-04-04T03:00:41.854Z,31.87
2019-04-04T03:02:43.512Z,34.90
2019-04-04T03:04:46.839Z,32.87
2019-04-04T03:06:49.350Z,31.20
2019-04-04T03:08:51.019Z,32.90
2019-04-04T03:10:52.696Z,34.33
2019-04-04T03:12:58.170Z,34.43
2019-04-04T03:14:57.937Z,32.70
2019-04-04T03:16:59.601Z,32.17
2019-04-04T03:19:01.269Z,32.50
2019-04-04T03:21:03.055Z,32.70
2019-04-04T03:23:04.719Z,33.60
2019-04-04T03:25:06.389Z,34.50
2019-04-04T03:27:08.071Z,33.13
2019-04-04T03:29:10.692Z,32.13
2019-04-04T03:31:12.955Z,32.27
2019-04-04T03:33:14.910Z,29.20
2019-04-04T03:35:16.877Z,30.80
2019-04-04T03:37:18.542Z,32.23
2019-04-04T03:39:20.541Z,32.07
2019-04-04T03:41:22.381Z,31.10
2019-04-04T03:43:24.032Z,29.87
2019-04-04T03:45:27.352Z,29.43
2019-04-04T03:47:29.286Z,31.03
2019-04-04T03:49:30.955Z,29.40
2019-04-04T03:51:37.071Z,32.03
2019-04-04T03:53:38.449Z,35.07
2019-04-04T03:55:40.124Z,29.03
2019-04-04T03:57:41.802Z,27.67
2019-04-04T03:59:43.472Z,28.13
2019-04-04T04:01:46.766Z,28.00
2019-04-04T04:03:49.133Z,28.77
2019-04-04T04:05:50.804Z,32.50
2019-04-04T04:07:52.646Z,31.93
2019-04-04T04:09:58.968Z,32.10
2019-04-04T04:11:58.993Z,31.20
2019-04-04T04:14:00.953Z,33.00
2019-04-04T04:16:03.838Z,29.67
2019-04-04T04:18:05.982Z,26.57
2019-04-04T04:20:07.648Z,24.53
2019-04-04T04:22:12.753Z,25.10
2019-04-04T04:24:12.893Z,30.40
2019-04-04T04:26:14.580Z,28.00
2019-04-04T04:28:19.691Z,31.23
2019-04-04T04:30:19.816Z,29.70
2019-04-04T04:32:22.805Z,25.60
2019-04-04T04:34:25.020Z,22.37
2019-04-04T04:36:26.689Z,24.60
2019-04-04T04:38:28.367Z,29.63
2019-04-04T04:40:30.050Z,26.87
2019-04-04T04:42:31.817Z,30.50
2019-04-04T04:44:37.845Z,27.40
2019-04-04T04:46:37.070Z,29.57
2019-04-04T04:48:38.742Z,26.80
2019-04-04T04:50:41.039Z,26.67
2019-04-04T04:52:46.464Z,27.13
2019-04-04T04:54:46.789Z,26.40
2019-04-04T04:56:48.708Z,24.40
2019-04-04T04:58:50.387Z,25.43
2019-04-04T05:00:52.063Z,24.10
2019-04-04T05:02:53.873Z,28.73
2019-04-04T05:04:59.018Z,25.57
2019-04-04T05:06:59.158Z,27.17
2019-04-04T05:09:00.829Z,27.47
2019-04-04T05:11:02.528Z,26.90
2019-04-04T05:13:04.237Z,26.43
2019-04-04T05:15:05.925Z,23.17
2019-04-04T05:17:08.136Z,29.80
2019-04-04T05:19:11.185Z,33.83
2019-04-04T05:21:24.374Z,35.07
2019-04-04T05:23:16.753Z,44.73
2019-04-04T05:25:18.414Z,38.37
2019-04-04T05:27:20.199Z,38.90
2019-04-04T05:29:21.969Z,40.47
2019-04-04T05:31:23.648Z,40.40
2019-04-04T05:33:27.271Z,38.17
2019-04-04T05:35:28.892Z,36.43
2019-04-04T05:37:30.569Z,34.17
2019-04-04T05:39:32.553Z,38.77
2019-04-04T05:41:37.147Z,33.40
2019-04-04T05:43:38.153Z,28.47
2019-04-04T05:45:40.068Z,24.93
2019-04-04T05:47:41.747Z,27.67
2019-04-04T05:49:43.521Z,27.87
2019-04-04T05:51:46.345Z,26.10
2019-04-04T05:53:49.005Z,29.20
2019-04-04T05:55:50.672Z,30.80
2019-04-04T05:57:52.374Z,31.00
2019-04-04T05:59:55.988Z,31.57
2019-04-04T06:01:57.732Z,32.03
2019-04-04T06:03:59.521Z,28.00
2019-04-04T06:06:01.956Z,28.60
2019-04-04T06:08:03.741Z,25.20
2019-04-04T06:10:06.113Z,27.47
2019-04-04T06:12:07.802Z,27.53
2019-04-04T06:14:09.478Z,28.73
2019-04-04T06:16:11.145Z,32.00
2019-04-04T06:18:12.825Z,29.50
2019-04-04T06:20:16.742Z,33.83
2019-04-04T06:22:19.080Z,36.77
2019-04-04T06:24:22.402Z,36.33
2019-04-04T06:26:24.069Z,36.80
2019-04-04T06:28:25.748Z,36.37
2019-04-04T06:30:27.426Z,36.17
2019-04-04T06:32:30.961Z,37.47
2019-04-04T06:34:33.013Z,37.70
2019-04-04T06:36:34.921Z,36.70
2019-04-04T06:38:37.069Z,36.70
2019-04-04T06:40:38.830Z,38.77
2019-04-04T06:42:40.605Z,35.43
2019-04-04T06:44:43.970Z,34.40
2019-04-04T06:46:45.924Z,37.40
2019-04-04T06:48:47.602Z,37.60
2019-04-04T06:50:49.266Z,35.80
2019-04-04T06:52:51.277Z,33.67
2019-04-04T06:54:53.010Z,34.23
2019-04-04T06:56:55.079Z,33.80
2019-04-04T06:58:56.771Z,35.80
2019-04-04T07:00:58.441Z,37.60
2019-04-04T07:03:00.125Z,35.80
2019-04-04T07:05:01.795Z,36.57
2019-04-04T07:07:03.584Z,37.20
2019-04-04T07:09:06.045Z,38.77
2019-04-04T07:11:20.613Z,38.07
2019-04-04T07:13:21.457Z,36.17
2019-04-04T07:15:15.907Z,37.30
2019-04-04T07:17:18.029Z,36.63
2019-04-04T07:19:19.713Z,37.93
2019-04-04T07:21:21.752Z,38.60
2019-04-04T07:23:27.415Z,36.37
2019-04-04T07:25:27.006Z,35.27
2019-04-04T07:27:28.700Z,34.60
2019-04-04T07:29:30.385Z,32.00
2019-04-04T07:31:34.034Z,31.70
2019-04-04T07:33:35.621Z,32.30
2019-04-04T07:35:37.280Z,31.13
2019-04-04T07:37:38.954Z,29.70
2019-04-04T07:39:40.628Z,31.23
2019-04-04T07:41:45.010Z,32.83
2019-04-04T07:43:45.877Z,32.80
2019-04-04T07:45:47.542Z,30.43
2019-04-04T07:47:49.216Z,29.80
2019-04-04T07:49:50.886Z,31.07
2019-04-04T07:51:52.989Z,32.40
2019-04-04T07:53:54.654Z,31.43
2019-04-04T07:55:56.313Z,31.73
2019-04-04T07:57:58.002Z,30.00
2019-04-04T07:59:59.672Z,32.03
2019-04-04T08:02:01.342Z,32.90
2019-04-04T08:04:03.305Z,32.60
2019-04-04T08:06:04.962Z,32.90
2019-04-04T08:08:06.640Z,38.00
2019-04-04T08:10:20.059Z,35.20
2019-04-04T08:12:11.973Z,35.90
2019-04-04T08:14:13.641Z,37.10
2019-04-04T08:16:15.568Z,36.27
2019-04-04T08:18:17.525Z,35.70
2019-04-04T08:20:19.195Z,35.33
2019-04-04T08:22:20.990Z,35.10
2019-04-04T08:24:22.942Z,32.30
2019-04-04T08:26:24.597Z,34.13
2019-04-04T08:28:26.609Z,31.70
2019-04-04T08:30:28.277Z,33.80
2019-04-04T08:32:30.216Z,31.57
2019-04-04T08:34:31.902Z,31.90
2019-04-04T08:36:35.772Z,32.67
2019-04-04T08:38:37.453Z,31.60
2019-04-04T08:40:39.131Z,32.13
2019-04-04T08:42:40.889Z,33.03
2019-04-04T08:44:42.559Z,32.37
2019-04-04T08:46:44.225Z,29.53
2019-04-04T08:48:46.165Z,32.10
2019-04-04T08:50:47.828Z,31.70
2019-04-04T08:52:49.796Z,30.50
2019-04-04T08:54:51.464Z,32.03
2019-04-04T08:56:53.133Z,33.00
2019-04-04T08:58:55.169Z,33.33
2019-04-04T09:00:56.838Z,30.70
2019-04-04T09:02:58.492Z,32.13
2019-04-04T09:05:11.181Z,30.17
2019-04-04T09:07:04.073Z,31.13
2019-04-04T09:09:05.748Z,29.27
2019-04-04T09:11:07.439Z,29.43
2019-04-04T09:13:09.168Z,29.27
2019-04-04T09:15:10.845Z,31.13
2019-04-04T09:17:12.509Z,31.67
2019-04-04T09:19:14.177Z,33.13
2019-04-04T09:21:15.847Z,30.93
2019-04-04T09:23:17.505Z,31.13
2019-04-04T09:25:19.176Z,29.23
2019-04-04T09:27:20.846Z,30.17
2019-04-04T09:29:22.521Z,30.10
2019-04-04T09:31:24.448Z,31.17
2019-04-04T09:33:26.116Z,30.70
2019-04-04T09:35:27.794Z,33.67
2019-04-04T09:37:29.465Z,30.50
2019-04-04T09:39:31.453Z,28.30
2019-04-04T09:41:33.118Z,30.57
2019-04-04T09:43:34.777Z,29.17
2019-04-04T09:45:36.745Z,30.40
2019-04-04T09:47:38.708Z,30.93
2019-04-04T09:49:40.383Z,29.63
2019-04-04T09:51:42.044Z,31.73
2019-04-04T09:53:52.947Z,30.13
2019-04-04T09:55:47.284Z,31.17
2019-04-04T09:57:48.940Z,31.00
2019-04-04T09:59:50.625Z,33.17
2019-04-04T10:01:52.392Z,32.10
2019-04-04T10:03:54.051Z,30.40
2019-04-04T10:05:55.733Z,30.23
2019-04-04T10:07:57.528Z,30.33
2019-04-04T10:09:59.270Z,31.20
2019-04-04T10:12:00.941Z,31.50
2019-04-04T10:14:04.141Z,32.80
2019-04-04T10:16:06.085Z,30.53
2019-04-04T10:18:07.738Z,31.03
2019-04-04T10:20:09.739Z,29.60
2019-04-04T10:22:11.480Z,30.07
2019-04-04T10:24:13.425Z,30.67
2019-04-04T10:26:15.098Z,30.77
2019-04-04T10:28:16.756Z,30.17
2019-04-04T10:30:18.713Z,30.83
2019-04-04T10:32:20.772Z,29.90
2019-04-04T10:34:22.737Z,30.70
2019-04-04T10:36:24.693Z,28.20
2019-04-04T10:38:26.353Z,30.27
2019-04-04T10:40:28.033Z,31.20
2019-04-04T10:42:29.697Z,31.90
2019-04-04T10:44:31.369Z,32.40
2019-04-04T10:46:33.050Z,33.47
2019-04-04T10:48:34.712Z,30.70
2019-04-04T10:50:36.397Z,31.20
2019-04-04T10:52:38.066Z,31.20
2019-04-04T10:54:39.729Z,32.30
2019-04-04T10:56:41.411Z,32.07
2019-04-04T10:58:43.195Z,29.37
2019-04-04T11:00:44.869Z,31.23
2019-04-04T11:02:46.786Z,32.80
2019-04-04T11:04:48.453Z,29.87
2019-04-04T11:06:50.126Z,30.80
2019-04-04T11:08:52.053Z,34.00
2019-04-04T11:10:53.730Z,31.90
2019-04-04T11:12:55.395Z,32.27
2019-04-04T11:14:57.409Z,31.97
2019-04-04T11:16:59.063Z,32.93
2019-04-04T11:19:00.734Z,32.90
2019-04-04T11:21:02.409Z,30.90
2019-04-04T11:23:04.069Z,33.43
2019-04-04T11:25:06.058Z,32.27
2019-04-04T11:27:07.726Z,33.80
2019-04-04T11:29:09.628Z,32.57
2019-04-04T11:31:11.305Z,34.03
2019-04-04T11:33:12.989Z,33.80
2019-04-04T11:35:15.056Z,33.47
2019-04-04T11:37:17.017Z,34.97
2019-04-04T11:39:19.277Z,32.40
2019-04-04T11:41:20.953Z,32.67
2019-04-04T11:43:22.606Z,32.53
2019-04-04T11:45:24.545Z,34.97
2019-04-04T11:47:26.286Z,35.37
2019-04-04T11:49:28.244Z,34.60
2019-04-04T11:51:30.302Z,34.90
2019-04-04T11:53:32.272Z,34.83
2019-04-04T11:55:34.248Z,35.47
2019-04-04T11:57:36.433Z,32.80
2019-04-04T11:59:38.344Z,33.67
2019-04-04T12:01:41.546Z,33.13
2019-04-04T12:03:43.212Z,35.23
2019-04-04T12:05:44.897Z,35.80
2019-04-04T12:07:46.566Z,34.83
2019-04-04T12:09:48.237Z,34.57
2019-04-04T12:11:49.908Z,35.87
2019-04-04T12:13:51.568Z,36.10
2019-04-04T12:15:53.517Z,35.53
2019-04-04T12:17:55.184Z,34.50
2019-04-04T12:19:57.126Z,35.60
2019-04-04T12:21:58.856Z,35.07
2019-04-04T12:24:00.574Z,35.47
2019-04-04T12:26:02.244Z,34.60
2019-04-04T12:28:03.914Z,34.70
2019-04-04T12:30:05.581Z,35.53
2019-04-04T12:32:07.566Z,33.03
2019-04-04T12:34:09.355Z,35.03
2019-04-04T12:36:11.101Z,32.60
2019-04-04T12:38:12.765Z,33.50
2019-04-04T12:40:20.334Z,34.50
2019-04-04T12:42:18.005Z,33.90
2019-04-04T12:44:19.668Z,34.97
2019-04-04T12:46:21.334Z,33.87
2019-04-04T12:48:22.997Z,34.10
2019-04-04T12:50:24.664Z,33.03
2019-04-04T12:52:26.584Z,33.07
2019-04-04T12:54:28.244Z,35.83
2019-04-04T12:56:29.942Z,33.90
2019-04-04T12:58:31.701Z,33.17
2019-04-04T13:00:33.376Z,35.47
2019-04-04T13:02:35.045Z,35.03
2019-04-04T13:04:36.705Z,34.47
2019-04-04T13:06:38.373Z,34.73
2019-04-04T13:08:40.041Z,34.83
2019-04-04T13:10:41.701Z,36.57
2019-04-04T13:12:43.375Z,33.67
2019-04-04T13:14:45.033Z,35.23
2019-04-04T13:16:46.704Z,36.70
2019-04-04T13:18:48.369Z,34.67
2019-04-04T13:20:50.038Z,37.57
2019-04-04T13:22:51.709Z,35.00
2019-04-04T13:24:53.371Z,35.60
2019-04-04T13:26:55.041Z,35.70
2019-04-04T13:28:56.937Z,35.73
2019-04-04T13:30:58.606Z,34.73
2019-04-04T13:33:00.276Z,35.00
2019-04-04T13:35:04.927Z,35.77
2019-04-04T13:37:05.534Z,35.83
2019-04-04T13:39:09.376Z,37.00
2019-04-04T13:41:21.345Z,35.57
2019-04-04T13:43:14.615Z,34.40
2019-04-04T13:45:16.282Z,38.27
2019-04-04T13:47:18.280Z,36.80
2019-04-04T13:49:19.949Z,38.03
2019-04-04T13:51:21.654Z,36.90
2019-04-04T13:53:25.452Z,38.40
2019-04-04T13:55:27.409Z,36.50
2019-04-04T13:57:29.733Z,37.63
2019-04-04T13:59:31.401Z,38.80
2019-04-04T14:01:33.062Z,35.97
2019-04-04T14:03:34.733Z,36.63
2019-04-04T14:05:36.397Z,35.43
2019-04-04T14:07:38.157Z,36.30
2019-04-04T14:09:39.820Z,35.90
2019-04-04T14:11:42.180Z,37.30
2019-04-04T14:13:43.965Z,37.80
2019-04-04T14:15:45.629Z,36.77
2019-04-04T14:17:47.353Z,36.27
2019-04-04T14:19:49.439Z,36.87
2019-04-04T14:21:51.094Z,34.87
2019-04-04T14:23:53.134Z,35.80
2019-04-04T14:25:55.321Z,34.10
2019-04-04T14:27:58.217Z,35.00
2019-04-04T14:30:00.753Z,35.73
2019-04-04T14:32:02.449Z,33.43
2019-04-04T14:34:04.196Z,33.67
2019-04-04T14:36:05.865Z,32.50
2019-04-04T14:38:07.558Z,30.80
2019-04-04T14:40:09.217Z,34.93
2019-04-04T14:42:10.894Z,34.67
2019-04-04T14:44:15.421Z,33.23
2019-04-04T14:46:16.121Z,32.50
2019-04-04T14:48:18.081Z,33.27
2019-04-04T14:50:20.043Z,33.13
2019-04-04T14:52:24.098Z,30.37
2019-04-04T14:54:29.044Z,32.90
2019-04-04T14:56:29.167Z,32.20
2019-04-04T14:58:31.113Z,31.73
2019-04-04T15:00:33.090Z,33.70
2019-04-04T15:02:34.765Z,32.47
2019-04-04T15:04:36.428Z,30.47
2019-04-04T15:06:38.098Z,33.30
2019-04-04T15:08:39.777Z,31.77
2019-04-04T15:10:41.747Z,30.93
2019-04-04T15:12:43.426Z,35.73
2019-04-04T15:14:45.084Z,28.87
2019-04-04T15:16:46.750Z,29.80
2019-04-04T15:18:48.429Z,29.60
2019-04-04T15:20:50.158Z,31.67
2019-04-04T15:22:51.829Z,30.27
2019-04-04T15:24:53.493Z,30.20
2019-04-04T15:26:55.156Z,31.17
2019-04-04T15:28:56.842Z,32.37
2019-04-04T15:30:58.506Z,30.33
2019-04-04T15:33:02.623Z,30.20
2019-04-04T15:35:04.085Z,29.80
2019-04-04T15:37:05.753Z,31.00
2019-04-04T15:39:07.432Z,31.40
2019-04-04T15:41:09.093Z,30.27
2019-04-04T15:43:10.774Z,29.90
2019-04-04T15:45:12.437Z,29.17
2019-04-04T15:47:14.141Z,32.20
2019-04-04T15:49:15.835Z,29.47
2019-04-04T15:51:17.498Z,30.87
2019-04-04T15:53:19.170Z,30.63
2019-04-04T15:55:20.842Z,30.67
2019-04-04T15:57:22.506Z,30.50
2019-04-04T15:59:24.493Z,31.23
2019-04-04T16:01:26.157Z,31.47
2019-04-04T16:03:27.837Z,32.20
2019-04-04T16:05:29.492Z,34.20
2019-04-04T16:07:31.158Z,30.57
2019-04-04T16:09:32.825Z,32.60
2019-04-04T16:11:34.499Z,32.37
2019-04-04T16:13:36.481Z,30.57
2019-04-04T16:15:38.145Z,31.07
2019-04-04T16:17:39.816Z,30.00
2019-04-04T16:19:41.828Z,32.07
2019-04-04T16:21:43.492Z,32.57
2019-04-04T16:23:45.463Z,31.73
2019-04-04T16:25:47.501Z,30.67
2019-04-04T16:27:49.262Z,31.97
2019-04-04T16:29:50.935Z,30.10
2019-04-04T16:31:52.594Z,32.33
2019-04-04T16:33:54.621Z,32.00
2019-04-04T16:35:56.532Z,32.70
2019-04-04T16:37:58.199Z,32.20
2019-04-04T16:40:08.721Z,32.00
2019-04-04T16:42:03.453Z,33.27
2019-04-04T16:44:05.121Z,31.23
2019-04-04T16:46:06.789Z,31.20
2019-04-04T16:48:08.457Z,34.53
2019-04-04T16:50:10.399Z,32.90
2019-04-04T16:52:12.049Z,30.97
2019-04-04T16:54:13.713Z,30.90
2019-04-04T16:56:15.661Z,32.67
2019-04-04T16:58:17.330Z,31.83
2019-04-04T17:00:20.848Z,33.97
2019-04-04T17:02:22.608Z,34.60
2019-04-04T17:04:24.303Z,34.77
2019-04-04T17:06:25.957Z,34.30
2019-04-04T17:08:27.961Z,34.30
2019-04-04T17:10:29.621Z,35.87
2019-04-04T17:12:31.285Z,35.30
2019-04-04T17:14:33.287Z,35.17
2019-04-04T17:16:35.323Z,34.87
2019-04-04T17:18:36.989Z,36.00
2019-04-04T17:20:38.663Z,36.03
2019-04-04T17:22:40.325Z,35.27
2019-04-04T17:24:42.006Z,36.13
2019-04-04T17:26:43.785Z,33.77
2019-04-04T17:28:45.643Z,36.17
2019-04-04T17:30:47.397Z,38.80
2019-04-04T17:32:50.192Z,40.40
2019-04-04T17:34:52.467Z,43.57
2019-04-04T17:36:54.246Z,44.37
2019-04-04T17:38:56.097Z,46.33
2019-04-04T17:40:58.156Z,45.40
2019-04-04T17:43:00.120Z,45.30
2019-04-04T17:45:02.569Z,42.50
2019-04-04T17:47:05.366Z,44.63
2019-04-04T17:49:07.496Z,45.50
2019-04-04T17:51:09.170Z,46.10
2019-04-04T17:53:10.985Z,46.90
2019-04-04T17:55:12.812Z,48.97
2019-04-04T17:57:14.526Z,47.50
2019-04-04T17:59:16.589Z,47.53
2019-04-04T18:01:18.254Z,51.03
2019-04-04T18:03:19.904Z,47.80
2019-04-04T18:05:21.581Z,48.10
2019-04-04T18:07:23.244Z,45.83
2019-04-04T18:09:31.707Z,45.60
2019-04-04T18:11:28.468Z,47.20
2019-04-04T18:13:32.034Z,46.67
2019-04-04T18:15:33.692Z,44.97
2019-04-04T18:17:35.351Z,43.77
2019-04-04T18:19:37.069Z,44.80
2019-04-04T18:21:39.133Z,50.00
2019-04-04T18:23:40.807Z,48.97
2019-04-04T18:25:42.478Z,51.90
2019-04-04T18:27:44.481Z,52.77
2019-04-04T18:29:46.154Z,50.57
2019-04-04T18:31:47.820Z,55.33
2019-04-04T18:33:49.554Z,57.13
2019-04-04T18:35:51.267Z,54.03
2019-04-04T18:37:53.000Z,55.17
2019-04-04T18:39:55.054Z,53.30
2019-04-04T18:41:56.721Z,54.57
2019-04-04T18:43:58.376Z,54.60
2019-04-04T18:46:00.071Z,56.43
2019-04-04T18:48:01.823Z,55.13
2019-04-04T18:50:03.553Z,54.80
2019-04-04T18:52:05.214Z,58.30
2019-04-04T18:54:06.885Z,53.73
2019-04-04T18:56:08.557Z,56.37
2019-04-04T18:58:10.217Z,54.43
2019-04-04T19:00:12.903Z,54.50
2019-04-04T19:02:14.569Z,54.17
2019-04-04T19:04:16.225Z,54.37
2019-04-04T19:06:17.889Z,54.73
2019-04-04T19:08:19.565Z,56.33
2019-04-04T19:10:21.237Z,54.87
2019-04-04T19:12:22.905Z,54.13
2019-04-04T19:14:24.564Z,56.87
2019-04-04T19:16:26.245Z,54.63
2019-04-04T19:18:28.177Z,54.43
2019-04-04T19:20:29.845Z,53.20
2019-04-04T19:22:31.758Z,53.40
2019-04-04T19:24:33.412Z,53.70
2019-04-04T19:26:35.132Z,54.70
2019-04-04T19:28:37.156Z,51.87
2019-04-04T19:30:38.808Z,52.33
2019-04-04T19:32:40.472Z,50.40
2019-04-04T19:34:43.733Z,48.00
2019-04-04T19:36:45.617Z,48.50
2019-04-04T19:38:47.561Z,49.03
2019-04-04T19:40:49.337Z,48.97
2019-04-04T19:42:51.006Z,48.80
2019-04-04T19:44:53.814Z,48.30
2019-04-04T19:46:55.635Z,46.40
2019-04-04T19:48:57.292Z,46.57
2019-04-04T19:50:59.321Z,45.67
2019-04-04T19:53:00.977Z,45.40
2019-04-04T19:55:02.639Z,46.23
2019-04-04T19:57:04.576Z,46.07
2019-04-04T19:59:06.253Z,46.70
2019-04-04T20:01:08.825Z,44.17
2019-04-04T20:03:10.487Z,42.10
2019-04-04T20:05:12.149Z,44.10
2019-04-04T20:07:13.817Z,45.23
2019-04-04T20:09:15.813Z,42.50
2019-04-04T20:11:17.487Z,43.90
2019-04-04T20:13:30.361Z,44.57
2019-04-04T20:15:23.229Z,46.37
2019-04-04T20:17:25.502Z,41.97
2019-04-04T20:19:30.050Z,42.50
2019-04-04T20:21:31.915Z,45.67
2019-04-04T20:23:33.817Z,43.57
2019-04-04T20:25:36.050Z,45.07
2019-04-04T20:27:37.717Z,45.33
2019-04-04T20:29:39.377Z,43.37
2019-04-04T20:31:41.051Z,43.03
2019-04-04T20:33:42.981Z,46.00
2019-04-04T20:35:45.078Z,41.87
2019-04-04T20:37:46.759Z,48.00
2019-04-04T20:39:48.684Z,44.87
2019-04-04T20:41:50.527Z,46.20
2019-04-04T20:43:52.496Z,45.67
2019-04-04T20:45:54.665Z,46.37
2019-04-04T20:47:56.853Z,48.27
2019-04-04T20:49:58.516Z,48.50
2019-04-04T20:52:00.509Z,46.17
2019-04-04T20:54:02.177Z,47.83
2019-04-04T20:56:04.492Z,46.97
2019-04-04T20:58:06.157Z,49.57
2019-04-04T21:00:07.839Z,46.50
2019-04-04T21:02:09.514Z,47.83
2019-04-04T21:04:11.168Z,50.50
2019-04-04T21:06:12.824Z,49.47
2019-04-04T21:08:14.503Z,49.77
2019-04-04T21:10:16.161Z,54.10
2019-04-04T21:12:17.848Z,51.47
2019-04-04T21:14:19.504Z,52.67
2019-04-04T21:16:21.197Z,53.00
2019-04-04T21:18:22.862Z,52.50
2019-04-04T21:20:24.797Z,52.00
2019-04-04T21:22:27.671Z,55.97
2019-04-04T21:24:29.729Z,56.30
2019-04-04T21:26:31.413Z,56.10
2019-04-04T21:28:33.077Z,56.70
2019-04-04T21:30:35.066Z,55.30
2019-04-04T21:32:36.744Z,52.77
2019-04-04T21:34:38.654Z,57.60
2019-04-04T21:36:40.325Z,52.70
2019-04-04T21:38:41.985Z,52.47
2019-04-04T21:40:43.637Z,55.77
2019-04-04T21:42:45.309Z,55.90
2019-04-04T21:44:47.269Z,54.57
2019-04-04T21:46:49.233Z,53.37
2019-04-04T21:48:50.897Z,53.67
2019-04-04T21:50:52.565Z,53.30
2019-04-04T21:52:54.224Z,55.67
2019-04-04T21:54:55.893Z,55.17
2019-04-04T21:56:57.564Z,51.30
2019-04-04T21:58:59.242Z,53.27
2019-04-04T22:01:00.920Z,52.47
2019-04-04T22:03:02.586Z,50.57
2019-04-04T22:05:05.531Z,50.23
2019-04-04T22:07:07.200Z,52.70
2019-04-04T22:09:10.934Z,53.37
2019-04-04T22:11:12.589Z,54.33
2019-04-04T22:13:14.700Z,51.33
2019-04-04T22:15:16.356Z,52.93
2019-04-04T22:17:18.033Z,53.43
2019-04-04T22:19:19.965Z,53.77
2019-04-04T22:21:21.629Z,51.47
2019-04-04T22:23:23.302Z,55.20
2019-04-04T22:25:24.969Z,49.33
2019-04-04T22:27:26.884Z,48.63
2019-04-04T22:29:28.837Z,52.07
2019-04-04T22:31:30.508Z,52.33
2019-04-04T22:33:32.173Z,53.17
2019-04-04T22:35:33.842Z,49.87
2019-04-04T22:37:35.509Z,48.73
2019-04-04T22:39:37.182Z,48.80
2019-04-04T22:41:38.845Z,50.27
2019-04-04T22:43:40.523Z,47.30
2019-04-04T22:45:42.445Z,49.93
2019-04-04T22:47:44.124Z,49.87
2019-04-04T22:49:46.042Z,49.80
2019-04-04T22:51:47.954Z,50.27
2019-04-04T22:53:49.637Z,51.73
2019-04-04T22:55:51.294Z,49.33
2019-04-04T22:57:52.956Z,54.10
2019-04-04T22:59:54.629Z,51.67
2019-04-04T23:01:56.298Z,50.93
2019-04-04T23:03:57.968Z,47.60
2019-04-04T23:05:59.630Z,47.90
2019-04-04T23:08:01.334Z,49.20
2019-04-04T23:10:04.025Z,49.60
2019-04-04T23:12:05.976Z,47.60
2019-04-04T23:14:07.643Z,49.80
2019-04-04T23:16:09.620Z,50.60
2019-04-04T23:18:11.297Z,48.10
2019-04-04T23:20:14.157Z,48.97
2019-04-04T23:22:15.816Z,47.20
2019-04-04T23:24:17.472Z,47.70
2019-04-04T23:26:19.384Z,49.97
2019-04-04T23:28:21.045Z,48.63
2019-04-04T23:30:22.713Z,48.43
2019-04-04T23:32:24.377Z,46.93
2019-04-04T23:34:26.056Z,47.73
2019-04-04T23:36:34.966Z,49.83
2019-04-04T23:38:31.276Z,46.83
2019-04-04T23:40:33.049Z,49.70
2019-04-04T23:42:34.725Z,49.70
2019-04-04T23:44:36.397Z,49.63
2019-04-04T23:46:38.044Z,49.30
2019-04-04T23:48:39.725Z,51.27
2019-04-04T23:50:41.481Z,51.93
2019-04-04T23:52:43.381Z,54.13
2019-04-04T23:54:45.049Z,51.50
2019-04-04T23:56:46.715Z,56.40
2019-04-04T23:58:48.392Z,51.10
